createdAt,value
2022-12-08T00:00:48.681Z,49.55
2022-12-08T00:03:15.448Z,43.50
2022-12-08T00:06:07.913Z,50.67
2022-12-08T00:08:53.242Z,48.65
2022-12-08T00:11:19.824Z,54.55
2022-12-08T00:13:46.560Z,50.95
2022-12-08T00:16:13.176Z,52.00
2022-12-08T00:18:39.629Z,58.28
2022-12-08T00:21:06.887Z,54.53
2022-12-08T00:23:33.274Z,52.60
2022-12-08T00:26:06.409Z,48.35
2022-12-08T00:28:33.899Z,44.33
2022-12-08T00:31:00.672Z,54.90
2022-12-08T00:33:30.148Z,54.10
2022-12-08T00:35:56.687Z,53.95
2022-12-08T00:38:23.080Z,56.72
2022-12-08T00:40:49.490Z,59.30
2022-12-08T00:43:15.863Z,58.35
2022-12-08T00:45:43.001Z,46.83
2022-12-08T00:48:09.531Z,51.55
2022-12-08T00:50:35.930Z,61.60
2022-12-08T00:53:02.752Z,55.33
2022-12-08T00:55:29.219Z,49.15
2022-12-08T00:57:55.807Z,44.17
2022-12-08T01:00:22.424Z,53.60
2022-12-08T01:02:49.155Z,43.38
2022-12-08T01:05:15.646Z,53.42
2022-12-08T01:07:42.288Z,56.25
2022-12-08T01:10:08.979Z,46.20
2022-12-08T01:12:35.450Z,51.30
2022-12-08T01:15:02.801Z,39.92
2022-12-08T01:17:30.235Z,52.30
2022-12-08T01:19:56.641Z,55.22
2022-12-08T01:22:23.020Z,58.15
2022-12-08T01:24:49.429Z,52.88
2022-12-08T01:27:16.257Z,49.47
2022-12-08T01:29:42.662Z,47.20
2022-12-08T01:32:09.477Z,56.40
2022-12-08T01:34:35.856Z,62.50
2022-12-08T01:37:02.258Z,54.90
2022-12-08T01:39:28.788Z,55.97
2022-12-08T01:41:55.157Z,49.95
2022-12-08T01:44:21.468Z,67.72
2022-12-08T01:46:50.680Z,57.97
2022-12-08T01:49:24.710Z,65.63
2022-12-08T01:51:57.132Z,67.15
2022-12-08T01:54:25.951Z,77.20
2022-12-08T01:57:07.460Z,70.65
2022-12-08T01:59:37.655Z,72.70
2022-12-08T02:02:04.157Z,74.63
2022-12-08T02:04:30.821Z,63.88
2022-12-08T02:06:57.999Z,77.35
2022-12-08T02:09:24.424Z,75.72
2022-12-08T02:11:51.480Z,74.75
2022-12-08T02:14:17.934Z,74.00
2022-12-08T02:16:50.971Z,73.00
2022-12-08T02:19:40.703Z,84.50
2022-12-08T02:22:09.462Z,78.70
2022-12-08T02:24:48.281Z,73.80
2022-12-08T02:27:33.867Z,74.82
2022-12-08T02:30:03.923Z,81.15
2022-12-08T02:32:58.770Z,90.07
2022-12-08T02:35:30.790Z,94.47
2022-12-08T02:38:25.960Z,87.10
2022-12-08T02:41:18.459Z,87.93
2022-12-08T02:43:48.238Z,95.35
2022-12-08T02:46:19.831Z,89.47
2022-12-08T02:48:46.914Z,95.45
2022-12-08T02:51:13.524Z,90.65
2022-12-08T02:53:40.532Z,87.68
2022-12-08T02:56:25.123Z,84.05
2022-12-08T02:59:18.196Z,93.53
2022-12-08T03:02:03.384Z,97.82
2022-12-08T03:04:49.645Z,101.65
2022-12-08T03:07:26.809Z,98.43
2022-12-08T03:10:28.643Z,98.97
2022-12-08T03:13:17.673Z,92.95
2022-12-08T03:15:47.951Z,100.00
2022-12-08T03:18:16.736Z,85.10
2022-12-08T03:20:45.167Z,94.63
2022-12-08T03:23:13.099Z,110.38
2022-12-08T03:25:44.032Z,103.50
2022-12-08T03:28:10.822Z,95.63
2022-12-08T03:30:39.332Z,104.90
2022-12-08T03:33:29.021Z,113.35
2022-12-08T03:35:55.764Z,105.05
2022-12-08T03:38:22.480Z,100.40
2022-12-08T03:41:08.874Z,100.75
2022-12-08T03:43:35.420Z,107.82
2022-12-08T03:46:02.094Z,112.80
2022-12-08T03:48:28.720Z,108.78
2022-12-08T03:50:55.149Z,96.55
2022-12-08T03:53:21.535Z,105.35
2022-12-08T03:55:48.074Z,118.53
2022-12-08T03:58:14.499Z,95.32
2022-12-08T04:00:41.253Z,99.30
2022-12-08T04:03:07.914Z,103.70
2022-12-08T04:05:34.341Z,106.15
2022-12-08T04:08:01.135Z,105.82
2022-12-08T04:10:28.056Z,99.75
2022-12-08T04:12:54.432Z,116.03
2022-12-08T04:15:20.865Z,107.22
2022-12-08T04:17:47.387Z,99.80
2022-12-08T04:20:13.839Z,83.95
2022-12-08T04:22:40.216Z,96.72
2022-12-08T04:25:07.232Z,103.40
2022-12-08T04:27:33.606Z,93.68
2022-12-08T04:30:00.035Z,98.90
2022-12-08T04:32:26.485Z,87.13
2022-12-08T04:34:52.846Z,86.53
2022-12-08T04:37:19.300Z,90.55
2022-12-08T04:39:45.701Z,93.13
2022-12-08T04:42:12.085Z,98.75
2022-12-08T04:44:38.467Z,93.63
2022-12-08T04:47:04.998Z,99.93
2022-12-08T04:49:31.730Z,79.40
2022-12-08T04:51:58.155Z,88.90
2022-12-08T04:54:24.549Z,79.07
2022-12-08T04:56:50.942Z,94.97
2022-12-08T04:59:17.354Z,72.63
2022-12-08T05:01:43.886Z,85.38
2022-12-08T05:04:11.741Z,82.10
2022-12-08T05:06:38.101Z,76.38
2022-12-08T05:09:04.535Z,73.53
2022-12-08T05:11:30.935Z,70.95
2022-12-08T05:13:57.314Z,87.82
2022-12-08T05:16:23.796Z,86.70
2022-12-08T05:18:50.250Z,85.15
2022-12-08T05:21:16.639Z,68.75
2022-12-08T05:23:43.386Z,65.55
2022-12-08T05:26:09.766Z,75.65
2022-12-08T05:28:44.074Z,69.55
2022-12-08T05:31:15.719Z,72.65
2022-12-08T05:33:43.045Z,64.13
2022-12-08T05:36:11.342Z,61.50
2022-12-08T05:38:37.930Z,60.05
2022-12-08T05:41:06.280Z,59.42
2022-12-08T05:43:32.682Z,66.22
2022-12-08T05:45:59.661Z,57.80
2022-12-08T05:48:26.239Z,64.30
2022-12-08T05:50:53.041Z,54.53
2022-12-08T05:53:20.562Z,63.83
2022-12-08T05:55:47.553Z,59.03
2022-12-08T05:58:16.357Z,58.65
2022-12-08T06:00:42.941Z,43.28
2022-12-08T06:03:11.850Z,42.05
2022-12-08T06:05:38.473Z,42.72
2022-12-08T06:08:05.072Z,46.40
2022-12-08T06:10:31.549Z,51.63
2022-12-08T06:12:59.400Z,52.80
2022-12-08T06:15:26.174Z,48.28
2022-12-08T06:17:52.558Z,57.83
2022-12-08T06:20:18.936Z,56.42
2022-12-08T06:22:45.653Z,61.90
2022-12-08T06:25:12.021Z,58.75
2022-12-08T06:27:38.471Z,50.08
2022-12-08T06:30:06.099Z,65.30
2022-12-08T06:32:32.669Z,66.03
2022-12-08T06:34:59.071Z,61.00
2022-12-08T06:37:25.478Z,54.92
2022-12-08T06:39:51.928Z,56.72
2022-12-08T06:42:36.989Z,56.60
2022-12-08T06:45:03.972Z,60.95
2022-12-08T06:47:30.508Z,50.13
2022-12-08T06:49:56.917Z,59.70
2022-12-08T06:52:23.300Z,43.88
2022-12-08T06:54:49.663Z,51.88
2022-12-08T06:57:16.250Z,50.83
2022-12-08T06:59:45.162Z,56.10
2022-12-08T07:02:11.756Z,55.65
2022-12-08T07:04:38.188Z,51.17
2022-12-08T07:07:04.565Z,49.60
2022-12-08T07:09:30.984Z,54.40
2022-12-08T07:11:57.453Z,46.38
2022-12-08T07:14:24.819Z,48.03
2022-12-08T07:17:07.251Z,55.55
2022-12-08T07:19:36.030Z,51.17
2022-12-08T07:22:02.411Z,51.35
2022-12-08T07:24:28.849Z,51.17
2022-12-08T07:26:55.207Z,57.08
2022-12-08T07:29:26.044Z,55.28
2022-12-08T07:31:52.805Z,44.95
2022-12-08T07:34:24.473Z,65.38
2022-12-08T07:36:50.872Z,59.50
2022-12-08T07:39:18.733Z,73.15
2022-12-08T07:41:45.174Z,62.28
2022-12-08T07:44:13.054Z,59.97
2022-12-08T07:46:39.508Z,43.22
2022-12-08T07:49:08.688Z,52.70
2022-12-08T07:51:48.879Z,48.55
2022-12-08T07:54:15.385Z,40.83
2022-12-08T07:56:41.788Z,45.85
2022-12-08T07:59:08.258Z,51.20
2022-12-08T08:01:35.072Z,45.17
2022-12-08T08:04:05.353Z,40.05
2022-12-08T08:06:33.121Z,43.97
2022-12-08T08:08:59.771Z,36.72
2022-12-08T08:11:26.347Z,29.40
2022-12-08T08:13:53.275Z,39.25
2022-12-08T08:16:20.564Z,39.90
2022-12-08T08:18:48.968Z,39.97
2022-12-08T08:21:44.368Z,44.08
2022-12-08T08:24:09.283Z,33.22
2022-12-08T08:26:38.767Z,33.85
2022-12-08T08:29:10.683Z,40.00
2022-12-08T08:31:37.332Z,43.40
2022-12-08T08:34:06.333Z,35.47
2022-12-08T08:36:33.153Z,38.70
2022-12-08T08:39:02.876Z,37.65
2022-12-08T08:41:29.441Z,43.22
2022-12-08T08:44:07.392Z,43.25
2022-12-08T08:46:34.323Z,42.53
2022-12-08T08:49:01.943Z,38.35
2022-12-08T08:51:28.732Z,37.20
2022-12-08T08:53:55.321Z,32.13
2022-12-08T08:56:23.477Z,32.58
2022-12-08T08:58:51.505Z,34.25
2022-12-08T09:01:33.159Z,33.00
2022-12-08T09:04:05.191Z,32.28
2022-12-08T09:06:32.364Z,35.10
2022-12-08T09:08:59.346Z,38.00
2022-12-08T09:11:25.819Z,29.05
2022-12-08T09:13:54.334Z,37.22
2022-12-08T09:16:24.623Z,40.70
2022-12-08T09:18:51.352Z,32.03
2022-12-08T09:21:29.917Z,36.42
2022-12-08T09:23:57.945Z,36.88
2022-12-08T09:26:25.721Z,35.50
2022-12-08T09:28:53.412Z,38.50
2022-12-08T09:31:21.332Z,43.15
2022-12-08T09:33:48.951Z,37.95
2022-12-08T09:36:15.499Z,53.90
2022-12-08T09:38:42.197Z,56.35
2022-12-08T09:41:24.470Z,56.38
2022-12-08T09:44:28.782Z,52.33
2022-12-08T09:46:55.467Z,52.40
2022-12-08T09:49:25.178Z,54.92
2022-12-08T09:51:51.597Z,45.60
2022-12-08T09:54:29.449Z,56.97
2022-12-08T09:56:59.479Z,38.95
2022-12-08T09:59:34.469Z,59.33
2022-12-08T10:02:02.317Z,58.08
2022-12-08T10:04:32.473Z,50.80
2022-12-08T10:07:18.427Z,59.80
2022-12-08T10:09:57.016Z,59.40
2022-12-08T10:12:30.704Z,59.88
2022-12-08T10:15:09.379Z,46.08
2022-12-08T10:17:40.027Z,66.55
2022-12-08T10:20:16.577Z,53.33
2022-12-08T10:22:45.094Z,60.72
2022-12-08T10:25:22.004Z,53.28
2022-12-08T10:27:50.120Z,54.13
2022-12-08T10:30:18.973Z,47.58
2022-12-08T10:32:48.168Z,55.88
2022-12-08T10:35:16.662Z,62.70
2022-12-08T10:37:56.114Z,53.92
2022-12-08T10:40:23.084Z,38.35
2022-12-08T10:42:52.779Z,52.70
2022-12-08T10:45:25.070Z,52.60
2022-12-08T10:48:01.498Z,50.78
2022-12-08T10:50:36.839Z,55.20
2022-12-08T10:53:09.161Z,48.13
2022-12-08T10:55:45.612Z,54.95
2022-12-08T10:58:24.196Z,56.53
2022-12-08T11:00:53.443Z,63.20
2022-12-08T11:03:29.228Z,58.35
2022-12-08T11:05:57.526Z,65.40
2022-12-08T11:08:24.704Z,58.42
2022-12-08T11:10:51.436Z,61.63
2022-12-08T11:13:27.184Z,78.47
2022-12-08T11:15:55.226Z,70.72
2022-12-08T11:18:22.795Z,78.32
2022-12-08T11:21:06.116Z,66.85
2022-12-08T11:23:35.915Z,67.97
2022-12-08T11:26:12.604Z,68.38
2022-12-08T11:28:39.249Z,70.32
2022-12-08T11:31:28.586Z,71.28
2022-12-08T11:33:55.967Z,74.25
2022-12-08T11:36:25.036Z,69.28
2022-12-08T11:38:56.280Z,65.47
2022-12-08T11:41:25.520Z,64.68
2022-12-08T11:44:10.730Z,65.60
2022-12-08T11:46:43.154Z,68.00
2022-12-08T11:49:10.983Z,75.65
2022-12-08T11:51:40.564Z,62.85
2022-12-08T11:54:36.624Z,61.95
2022-12-08T11:57:05.665Z,70.55
2022-12-08T11:59:35.916Z,69.65
2022-12-08T12:02:04.531Z,73.57
2022-12-08T12:04:37.227Z,71.78
2022-12-08T12:07:26.590Z,62.75
2022-12-08T12:10:10.940Z,58.40
2022-12-08T12:13:04.588Z,53.63
2022-12-08T12:15:30.905Z,48.33
2022-12-08T12:18:04.282Z,51.28
2022-12-08T12:20:36.338Z,44.58
2022-12-08T12:23:17.225Z,44.90
2022-12-08T12:25:53.830Z,36.72
2022-12-08T12:28:20.383Z,39.00
2022-12-08T12:31:03.040Z,43.58
2022-12-08T12:33:33.142Z,40.60
2022-12-08T12:36:04.026Z,40.47
2022-12-08T12:38:53.051Z,41.45
2022-12-08T12:41:26.339Z,43.50
2022-12-08T12:44:18.970Z,37.83
2022-12-08T12:46:48.735Z,38.28
2022-12-08T12:49:40.129Z,34.55
2022-12-08T12:52:15.212Z,32.45
2022-12-08T12:55:05.561Z,27.88
2022-12-08T12:57:52.695Z,28.92
2022-12-08T13:00:22.202Z,29.20
2022-12-08T13:02:50.009Z,29.35
2022-12-08T13:05:18.516Z,32.13
2022-12-08T13:07:52.429Z,29.42
2022-12-08T13:10:27.906Z,26.95
2022-12-08T13:13:16.295Z,28.52
2022-12-08T13:15:56.984Z,29.38
2022-12-08T13:18:36.398Z,24.48
2022-12-08T13:21:14.960Z,25.63
2022-12-08T13:23:46.867Z,27.80
2022-12-08T13:26:18.232Z,26.13
2022-12-08T13:29:01.088Z,24.15
2022-12-08T13:31:37.474Z,28.95
2022-12-08T13:34:14.384Z,30.05
2022-12-08T13:36:49.699Z,28.05
2022-12-08T13:39:29.057Z,26.17
2022-12-08T13:42:02.679Z,29.73
2022-12-08T13:47:34.998Z,28.10
2022-12-08T13:58:46.941Z,34.22
2022-12-08T14:01:22.239Z,38.35
2022-12-08T14:04:22.148Z,40.55
2022-12-08T14:06:39.490Z,47.72
2022-12-08T14:09:12.082Z,42.97
2022-12-08T14:11:41.838Z,54.38
2022-12-08T14:14:45.955Z,45.65
2022-12-08T14:17:11.364Z,54.67
2022-12-08T14:19:38.212Z,57.85
2022-12-08T14:22:18.068Z,54.63
2022-12-08T14:24:52.931Z,60.75
2022-12-08T14:27:24.452Z,57.67
2022-12-08T14:29:56.062Z,59.17
2022-12-08T14:32:27.319Z,66.35
2022-12-08T14:35:02.832Z,67.07
2022-12-08T14:37:32.284Z,65.85
2022-12-08T14:40:02.009Z,68.35
2022-12-08T14:42:29.576Z,66.55
2022-12-08T14:45:02.044Z,62.78
2022-12-08T14:47:30.626Z,60.20
2022-12-08T14:49:57.981Z,75.50
2022-12-08T14:52:24.838Z,70.63
2022-12-08T14:54:51.995Z,72.88
2022-12-08T14:57:18.387Z,64.53
2022-12-08T14:59:46.093Z,64.63
2022-12-08T15:02:12.560Z,65.05
2022-12-08T15:04:44.339Z,65.35
2022-12-08T15:07:17.380Z,63.13
2022-12-08T15:09:46.345Z,52.28
2022-12-08T15:12:12.664Z,59.00
2022-12-08T15:14:42.374Z,60.67
2022-12-08T15:17:31.961Z,67.03
2022-12-08T15:19:59.834Z,64.70
2022-12-08T15:22:29.020Z,57.25
2022-12-08T15:24:56.002Z,57.88
2022-12-08T15:27:23.958Z,64.07
2022-12-08T15:29:50.684Z,59.90
2022-12-08T15:32:19.459Z,53.13
2022-12-08T15:34:46.175Z,56.15
2022-12-08T15:37:21.051Z,51.05
2022-12-08T15:39:47.950Z,57.10
2022-12-08T15:42:14.379Z,50.25
2022-12-08T15:44:41.506Z,47.75
2022-12-08T15:47:22.869Z,53.95
2022-12-08T15:49:51.361Z,59.17
2022-12-08T15:52:24.241Z,62.15
2022-12-08T15:54:50.785Z,59.45
2022-12-08T15:57:25.012Z,67.45
2022-12-08T15:59:56.408Z,62.25
2022-12-08T16:02:23.838Z,58.70
2022-12-08T16:07:38.399Z,59.47
2022-12-08T16:10:06.710Z,66.35
2022-12-08T16:15:59.316Z,60.05
2022-12-08T16:18:29.635Z,67.60
2022-12-08T16:21:10.275Z,69.22
2022-12-08T16:23:44.611Z,70.05
2022-12-08T16:26:35.516Z,74.20
2022-12-08T16:28:59.993Z,76.90
2022-12-08T16:31:26.507Z,77.45
2022-12-08T16:33:53.058Z,90.97
2022-12-08T16:36:19.479Z,82.28
2022-12-08T16:38:45.907Z,83.22
2022-12-08T16:41:33.012Z,79.72
2022-12-08T16:44:05.289Z,85.82
2022-12-08T16:46:32.080Z,89.68
2022-12-08T16:48:59.107Z,82.20
2022-12-08T16:51:30.802Z,82.07
2022-12-08T16:53:58.236Z,87.38
2022-12-08T16:56:32.647Z,91.28
2022-12-08T16:59:18.189Z,90.90
2022-12-08T17:01:44.727Z,81.20
2022-12-08T17:06:58.230Z,93.47
2022-12-08T17:09:25.868Z,89.63
2022-12-08T17:11:52.325Z,93.53
2022-12-08T17:14:18.938Z,84.75
2022-12-08T17:16:45.658Z,97.97
2022-12-08T17:19:13.172Z,92.22
2022-12-08T17:21:39.618Z,86.78
2022-12-08T17:24:06.158Z,81.25
2022-12-08T17:26:32.844Z,90.63
2022-12-08T17:29:00.944Z,79.53
2022-12-08T17:31:30.363Z,93.07
2022-12-08T17:34:08.194Z,86.43
2022-12-08T17:36:34.691Z,87.32
2022-12-08T17:39:01.217Z,93.32
2022-12-08T17:41:28.852Z,87.68
2022-12-08T17:43:55.730Z,90.35
2022-12-08T17:46:23.195Z,87.45
2022-12-08T17:48:49.767Z,82.85
2022-12-08T17:51:16.529Z,102.75
2022-12-08T17:53:42.970Z,91.03
2022-12-08T17:56:18.027Z,83.25
2022-12-08T17:58:47.581Z,82.53
2022-12-08T18:01:17.780Z,94.43
2022-12-08T18:03:44.305Z,92.00
2022-12-08T18:06:12.362Z,94.40
2022-12-08T18:08:39.523Z,93.18
2022-12-08T18:11:12.345Z,103.38
2022-12-08T18:13:47.005Z,105.20
2022-12-08T18:16:22.854Z,84.40
2022-12-08T18:18:56.966Z,92.85
2022-12-08T18:21:23.960Z,91.47
2022-12-08T18:23:55.979Z,95.20
2022-12-08T18:26:24.542Z,95.70
2022-12-08T18:29:11.327Z,86.32
2022-12-08T18:31:37.801Z,98.35
2022-12-08T18:34:04.234Z,108.07
2022-12-08T18:36:39.623Z,118.18
2022-12-08T18:39:10.779Z,95.65
2022-12-08T18:41:37.563Z,97.70
2022-12-08T18:44:04.170Z,100.25
2022-12-08T18:46:30.729Z,99.95
2022-12-08T18:48:57.989Z,98.15
2022-12-08T18:51:24.655Z,95.40
2022-12-08T18:53:51.877Z,97.15
2022-12-08T18:56:27.537Z,114.85
2022-12-08T18:58:59.847Z,116.40
2022-12-08T19:01:29.730Z,110.28
2022-12-08T19:04:26.862Z,114.82
2022-12-08T19:06:45.533Z,110.43
2022-12-08T19:09:12.581Z,110.93
2022-12-08T19:11:39.017Z,111.78
2022-12-08T19:14:05.532Z,114.55
2022-12-08T19:16:31.986Z,114.32
2022-12-08T19:18:58.490Z,107.68
2022-12-08T19:21:25.282Z,105.30
2022-12-08T19:23:52.699Z,105.75
2022-12-08T19:26:19.648Z,108.57
2022-12-08T19:28:46.056Z,106.38
2022-12-08T19:31:12.527Z,102.28
2022-12-08T19:33:39.165Z,94.10
2022-12-08T19:36:10.342Z,100.38
2022-12-08T19:38:56.701Z,96.95
2022-12-08T19:41:42.410Z,93.85
2022-12-08T19:44:47.616Z,82.55
2022-12-08T19:47:14.696Z,92.68
2022-12-08T19:49:41.303Z,98.93
2022-12-08T19:52:07.759Z,92.60
2022-12-08T19:54:34.556Z,92.38
2022-12-08T19:57:01.773Z,82.88
2022-12-08T19:59:29.985Z,89.55
2022-12-08T20:01:57.687Z,94.50
2022-12-08T20:04:25.151Z,99.72
2022-12-08T20:06:54.863Z,93.15
2022-12-08T20:09:22.049Z,88.53
2022-12-08T20:11:50.544Z,112.05
2022-12-08T20:14:18.181Z,123.28
2022-12-08T20:16:44.672Z,106.57
2022-12-08T20:19:11.189Z,115.78
2022-12-08T20:21:39.410Z,114.30
2022-12-08T20:24:06.351Z,113.85
2022-12-08T20:26:35.078Z,125.90
2022-12-08T20:29:01.482Z,102.93
2022-12-08T20:31:29.392Z,112.85
2022-12-08T20:33:56.156Z,112.53
2022-12-08T20:36:22.946Z,116.30
2022-12-08T20:38:51.086Z,109.97
2022-12-08T20:41:18.703Z,114.60
2022-12-08T20:43:46.755Z,115.47
2022-12-08T20:46:15.130Z,127.00
2022-12-08T20:48:43.343Z,121.13
2022-12-08T20:51:17.739Z,119.60
2022-12-08T20:53:45.066Z,111.65
2022-12-08T20:56:20.640Z,121.15
2022-12-08T20:58:48.580Z,118.43
2022-12-08T21:01:18.765Z,118.82
2022-12-08T21:03:47.281Z,138.75
2022-12-08T21:06:15.481Z,129.68
2022-12-08T21:08:42.346Z,117.95
2022-12-08T21:11:09.509Z,142.85
2022-12-08T21:13:39.800Z,138.02
2022-12-08T21:16:09.468Z,140.65
2022-12-08T21:18:39.755Z,122.05
2022-12-08T21:21:09.198Z,143.52
2022-12-08T21:23:35.935Z,149.10
2022-12-08T21:26:03.201Z,163.82
2022-12-08T21:28:29.792Z,163.05
2022-12-08T21:30:56.412Z,165.32
2022-12-08T21:33:22.950Z,158.65
2022-12-08T21:35:49.659Z,147.70
2022-12-08T21:38:16.134Z,156.23
2022-12-08T21:40:45.173Z,155.38
2022-12-08T21:43:15.959Z,145.05
2022-12-08T21:45:47.641Z,157.27
2022-12-08T21:48:23.068Z,168.88
2022-12-08T21:51:04.005Z,128.65
2022-12-08T21:53:33.918Z,157.80
2022-12-08T21:56:30.840Z,131.05
2022-12-08T21:58:58.593Z,149.27
2022-12-08T22:01:25.299Z,143.57
2022-12-08T22:03:51.870Z,135.05
2022-12-08T22:06:18.450Z,138.02
2022-12-08T22:08:44.960Z,128.40
2022-12-08T22:11:14.595Z,121.95
2022-12-08T22:13:41.740Z,128.30
2022-12-08T22:16:11.102Z,123.93
2022-12-08T22:18:37.941Z,125.35
2022-12-08T22:21:10.239Z,108.57
2022-12-08T22:23:37.001Z,126.85
2022-12-08T22:26:04.436Z,113.75
2022-12-08T22:28:33.515Z,117.95
2022-12-08T22:31:00.376Z,118.55
2022-12-08T22:33:29.755Z,133.20
2022-12-08T22:36:06.275Z,135.38
2022-12-08T22:38:36.403Z,158.80
2022-12-08T22:41:07.204Z,128.88
2022-12-08T22:43:34.002Z,120.55
2022-12-08T22:46:00.678Z,116.88
2022-12-08T22:48:27.377Z,111.43
2022-12-08T22:51:03.270Z,117.88
2022-12-08T22:53:32.069Z,108.35
2022-12-08T22:56:16.004Z,119.55
2022-12-08T22:58:42.754Z,117.88
2022-12-08T23:01:16.426Z,104.72
2022-12-08T23:03:43.105Z,103.97
2022-12-08T23:06:29.796Z,105.68
2022-12-08T23:08:57.182Z,100.82
2022-12-08T23:11:28.831Z,115.00
2022-12-08T23:13:56.362Z,100.20
2022-12-08T23:16:23.157Z,108.20
2022-12-08T23:18:49.662Z,112.07
2022-12-08T23:21:22.084Z,104.88
2022-12-08T23:23:48.645Z,107.68
2022-12-08T23:26:26.705Z,107.05
2022-12-08T23:28:53.671Z,95.97
2022-12-08T23:31:20.819Z,96.00
2022-12-08T23:33:50.749Z,104.45
2022-12-08T23:36:18.858Z,110.95
2022-12-08T23:38:45.605Z,94.72
2022-12-08T23:41:14.260Z,95.32
2022-12-08T23:44:09.105Z,110.32
2022-12-08T23:46:35.735Z,105.03
2022-12-08T23:49:02.336Z,102.13
2022-12-08T23:51:31.990Z,104.53
2022-12-08T23:54:01.724Z,108.35
2022-12-08T23:56:30.402Z,106.03
2022-12-08T23:58:57.196Z,122.70
